MSC Levina — 3FJR8 — position and weather

sailwx.info

Track history (hours):
 
Tides and Currents Weather Stations Pressure Air Temp Water Temp Dewpoint Dewpoint Depression Visibility Wind Speed Wind Dir Waves Ship Positions

MSC Levina

Last reported at 2017-Mar-21 15:07 UTC. Time now 2017-Mar-28 00:21 UTC.
Position N 33°59' E 134°57'.

Length 227.6 m; beam 32.2 m; draft 12.1 m.

Type: Ship. MMSI: 355609000.

Date/timePositionNaut miles runAvg speedWind from/ knotsBaromVisibWave heightAir tempDewpointWater temp
2017-Mar-21 15:07N 33°59' E 134°57'815.0
2017-Mar-21 14:33N 34°08' E 134°57'1515.1
2017-Mar-21 13:32N 34°23' E 135°01'1717.0
2017-Mar-21 12:34N 34°35' E 135°15'5 5.1
2017-Mar-21 11:32N 34°40' E 135°14'0 0.0
2017-Mar-21 10:32N 34°40' E 135°14'0 0.0
2017-Mar-21 09:32N 34°40' E 135°14'0 0.0
2017-Mar-21 08:20N 34°40' E 135°14'0 0.0
2017-Mar-21 07:26N 34°40' E 135°14'0 0.0
2017-Mar-21 06:32N 34°40' E 135°14'0 0.0
2017-Mar-21 05:20N 34°40' E 135°14'0 0.0
2017-Mar-21 04:32N 34°40' E 135°14'0 0.0
2017-Mar-21 03:32N 34°40' E 135°14'0 0.0
2017-Mar-21 02:32N 34°40' E 135°14'0 0.0
2017-Mar-21 01:32N 34°40' E 135°14'0 0.0
2017-Mar-21 00:32N 34°40' E 135°14'0 0.0
2017-Mar-20 23:32N 34°40' E 135°14'0 0.0
2017-Mar-20 22:28N 34°40' E 135°14'6 6.2
2017-Mar-20 21:33N 34°39' E 135°21'3 2.5
2017-Mar-20 20:29N 34°39' E 135°24'0 0.0
2017-Mar-20 19:23N 34°39' E 135°24'0 0.0
2017-Mar-20 18:29N 34°39' E 135°24'0 0.0
2017-Mar-20 17:29N 34°39' E 135°24'0 0.0
2017-Mar-20 16:29N 34°39' E 135°24'0 0.0
2017-Mar-20 15:29N 34°39' E 135°24'0 0.0
2017-Mar-20 14:29N 34°39' E 135°24'0 0.0
2017-Mar-20 13:05N 34°39' E 135°24'0 0.1
2017-Mar-20 12:29N 34°39' E 135°24'0 0.0
2017-Mar-20 11:29N 34°39' E 135°24'0 0.0
2017-Mar-20 10:29N 34°39' E 135°24'0 0.0
2017-Mar-20 09:29N 34°39' E 135°24'0 0.0
2017-Mar-20 08:29N 34°39' E 135°24'0 0.0
2017-Mar-20 07:33N 34°39' E 135°24'8 8.4
2017-Mar-20 06:33N 34°33' E 135°17'1716.6
2017-Mar-20 05:33N 34°21' E 135°03'1413.7
2017-Mar-20 04:33N 34°08' E 134°59'1212.0
2017-Mar-20 03:32N 33°56' E 134°59'  
2017-Mar-16 05:32N 29°44' E 122°38'  
2017-Mar-13 16:31N 33°16' E 132°01'38713.7
2017-Mar-12 12:17N 34°47' E 139°35'1216.7
2017-Mar-12 11:34N 34°58' E 139°40'1515.3
2017-Mar-12 10:33N 35°13' E 139°46'1211.8
2017-Mar-12 09:33N 35°24' E 139°42'4 3.8
2017-Mar-12 08:33N 35°28' E 139°42'0 0.0
2017-Mar-12 07:32N 35°28' E 139°42'0 0.0
2017-Mar-12 06:32N 35°28' E 139°42'0 0.0
2017-Mar-12 05:32N 35°28' E 139°42'0 0.0
2017-Mar-12 04:32N 35°28' E 139°42'0 0.0
2017-Mar-12 03:32N 35°28' E 139°42'0 0.0
2017-Mar-12 02:32N 35°28' E 139°42'0 0.0
2017-Mar-12 01:32N 35°28' E 139°42'0 0.0
2017-Mar-12 00:32N 35°28' E 139°42'0 0.0
2017-Mar-11 23:32N 35°28' E 139°42'0 0.2
2017-Mar-11 22:33N 35°28' E 139°42'3 2.6
2017-Mar-11 21:33N 35°26' E 139°44'0 0.1
2017-Mar-11 20:33N 35°26' E 139°44'0 0.0
2017-Mar-11 19:33N 35°26' E 139°44'0 0.0
2017-Mar-11 18:33N 35°26' E 139°44'0 0.0
2017-Mar-11 17:33N 35°26' E 139°44'0 0.0
2017-Mar-11 16:33N 35°26' E 139°44'0 0.0
2017-Mar-11 15:33N 35°26' E 139°44'  
Track history (hours):
 
Tides and Currents Weather Stations Pressure Air Temp Water Temp Dewpoint Dewpoint Depression Visibility Wind Speed Wind Dir Waves Ship Positions

MSC Levina

Last reported at 2017-Mar-21 15:07 UTC. Time now 2017-Mar-28 00:21 UTC.
Position N 33°59' E 134°57'.

Length 227.6 m; beam 32.2 m; draft 12.1 m.

Type: Ship. MMSI: 355609000.

Date/timePositionNaut miles runAvg speedWind from/ knotsBaromVisibWave heightAir tempDewpointWater temp
2017-Mar-21 15:07N 33°59' E 134°57'815.0
2017-Mar-21 14:33N 34°08' E 134°57'1515.1
2017-Mar-21 13:32N 34°23' E 135°01'1717.0
2017-Mar-21 12:34N 34°35' E 135°15'5 5.1
2017-Mar-21 11:32N 34°40' E 135°14'0 0.0
2017-Mar-21 10:32N 34°40' E 135°14'0 0.0
2017-Mar-21 09:32N 34°40' E 135°14'0 0.0
2017-Mar-21 08:20N 34°40' E 135°14'0 0.0
2017-Mar-21 07:26N 34°40' E 135°14'0 0.0
2017-Mar-21 06:32N 34°40' E 135°14'0 0.0
2017-Mar-21 05:20N 34°40' E 135°14'0 0.0
2017-Mar-21 04:32N 34°40' E 135°14'0 0.0
2017-Mar-21 03:32N 34°40' E 135°14'0 0.0
2017-Mar-21 02:32N 34°40' E 135°14'0 0.0
2017-Mar-21 01:32N 34°40' E 135°14'0 0.0
2017-Mar-21 00:32N 34°40' E 135°14'0 0.0
2017-Mar-20 23:32N 34°40' E 135°14'0 0.0
2017-Mar-20 22:28N 34°40' E 135°14'6 6.2
2017-Mar-20 21:33N 34°39' E 135°21'3 2.5
2017-Mar-20 20:29N 34°39' E 135°24'0 0.0
2017-Mar-20 19:23N 34°39' E 135°24'0 0.0
2017-Mar-20 18:29N 34°39' E 135°24'0 0.0
2017-Mar-20 17:29N 34°39' E 135°24'0 0.0
2017-Mar-20 16:29N 34°39' E 135°24'0 0.0
2017-Mar-20 15:29N 34°39' E 135°24'0 0.0
2017-Mar-20 14:29N 34°39' E 135°24'0 0.0
2017-Mar-20 13:05N 34°39' E 135°24'0 0.1
2017-Mar-20 12:29N 34°39' E 135°24'0 0.0
2017-Mar-20 11:29N 34°39' E 135°24'0 0.0
2017-Mar-20 10:29N 34°39' E 135°24'0 0.0
2017-Mar-20 09:29N 34°39' E 135°24'0 0.0
2017-Mar-20 08:29N 34°39' E 135°24'0 0.0
2017-Mar-20 07:33N 34°39' E 135°24'8 8.4
2017-Mar-20 06:33N 34°33' E 135°17'1716.6
2017-Mar-20 05:33N 34°21' E 135°03'1413.7
2017-Mar-20 04:33N 34°08' E 134°59'1212.0
2017-Mar-20 03:32N 33°56' E 134°59'  
2017-Mar-16 05:32N 29°44' E 122°38'  
2017-Mar-13 16:31N 33°16' E 132°01'38713.7
2017-Mar-12 12:17N 34°47' E 139°35'1216.7
2017-Mar-12 11:34N 34°58' E 139°40'1515.3
2017-Mar-12 10:33N 35°13' E 139°46'1211.8
2017-Mar-12 09:33N 35°24' E 139°42'4 3.8
2017-Mar-12 08:33N 35°28' E 139°42'0 0.0
2017-Mar-12 07:32N 35°28' E 139°42'0 0.0
2017-Mar-12 06:32N 35°28' E 139°42'0 0.0
2017-Mar-12 05:32N 35°28' E 139°42'0 0.0
2017-Mar-12 04:32N 35°28' E 139°42'0 0.0
2017-Mar-12 03:32N 35°28' E 139°42'0 0.0
2017-Mar-12 02:32N 35°28' E 139°42'0 0.0
2017-Mar-12 01:32N 35°28' E 139°42'0 0.0
2017-Mar-12 00:32N 35°28' E 139°42'0 0.0
2017-Mar-11 23:32N 35°28' E 139°42'0 0.2
2017-Mar-11 22:33N 35°28' E 139°42'3 2.6
2017-Mar-11 21:33N 35°26' E 139°44'0 0.1
2017-Mar-11 20:33N 35°26' E 139°44'0 0.0
2017-Mar-11 19:33N 35°26' E 139°44'0 0.0
2017-Mar-11 18:33N 35°26' E 139°44'0 0.0
2017-Mar-11 17:33N 35°26' E 139°44'0 0.0
2017-Mar-11 16:33N 35°26' E 139°44'0 0.0
2017-Mar-11 15:33N 35°26' E 139°44'  

Dump ship's entire track history